sensor_id;sensor_type;location;lat;lon;timestamp;P1;durP1;ratioP1;P2;durP2;ratioP2
142;SDS011;63667;49.046;8.468;2024-03-08T00:01:53;49.17;;;21.40;;
142;SDS011;63667;49.046;8.468;2024-03-08T00:04:21;59.10;;;23.97;;
142;SDS011;63667;49.046;8.468;2024-03-08T00:06:49;61.13;;;23.73;;
142;SDS011;63667;49.046;8.468;2024-03-08T00:09:17;54.03;;;23.70;;
142;SDS011;63667;49.046;8.468;2024-03-08T00:11:44;53.17;;;23.63;;
142;SDS011;63667;49.046;8.468;2024-03-08T00:14:12;62.23;;;23.63;;
142;SDS011;63667;49.046;8.468;2024-03-08T00:16:39;57.77;;;22.83;;
142;SDS011;63667;49.046;8.468;2024-03-08T00:19:09;54.43;;;23.03;;
142;SDS011;63667;49.046;8.468;2024-03-08T00:21:37;59.43;;;23.60;;
142;SDS011;63667;49.046;8.468;2024-03-08T00:24:05;54.53;;;22.77;;
142;SDS011;63667;49.046;8.468;2024-03-08T00:26:32;55.33;;;24.00;;
142;SDS011;63667;49.046;8.468;2024-03-08T00:28:59;54.27;;;22.53;;
142;SDS011;63667;49.046;8.468;2024-03-08T00:31:27;61.90;;;23.50;;
142;SDS011;63667;49.046;8.468;2024-03-08T00:33:56;52.70;;;22.63;;
142;SDS011;63667;49.046;8.468;2024-03-08T00:36:25;52.73;;;22.10;;
142;SDS011;63667;49.046;8.468;2024-03-08T00:38:52;53.53;;;22.80;;
142;SDS011;63667;49.046;8.468;2024-03-08T00:41:20;51.87;;;23.47;;
142;SDS011;63667;49.046;8.468;2024-03-08T00:43:48;54.47;;;22.93;;
142;SDS011;63667;49.046;8.468;2024-03-08T00:46:15;55.37;;;23.70;;
142;SDS011;63667;49.046;8.468;2024-03-08T00:48:43;58.97;;;23.63;;
142;SDS011;63667;49.046;8.468;2024-03-08T00:51:10;50.10;;;22.23;;
142;SDS011;63667;49.046;8.468;2024-03-08T00:53:38;65.00;;;23.67;;
142;SDS011;63667;49.046;8.468;2024-03-08T00:56:05;60.60;;;23.50;;
142;SDS011;63667;49.046;8.468;2024-03-08T00:58:36;54.83;;;23.00;;
142;SDS011;63667;49.046;8.468;2024-03-08T01:01:04;49.07;;;21.77;;
142;SDS011;63667;49.046;8.468;2024-03-08T01:03:32;59.77;;;23.87;;
142;SDS011;63667;49.046;8.468;2024-03-08T01:06:00;57.10;;;23.67;;
142;SDS011;63667;49.046;8.468;2024-03-08T01:08:27;71.03;;;23.87;;
142;SDS011;63667;49.046;8.468;2024-03-08T01:10:54;51.80;;;22.47;;
142;SDS011;63667;49.046;8.468;2024-03-08T01:13:22;54.67;;;23.33;;
142;SDS011;63667;49.046;8.468;2024-03-08T01:15:49;52.07;;;23.43;;
142;SDS011;63667;49.046;8.468;2024-03-08T01:18:16;53.70;;;23.27;;
142;SDS011;63667;49.046;8.468;2024-03-08T01:20:45;56.93;;;22.80;;
142;SDS011;63667;49.046;8.468;2024-03-08T01:23:12;55.93;;;22.30;;
142;SDS011;63667;49.046;8.468;2024-03-08T01:25:40;58.67;;;24.10;;
142;SDS011;63667;49.046;8.468;2024-03-08T01:28:09;53.80;;;22.43;;
142;SDS011;63667;49.046;8.468;2024-03-08T01:30:37;56.67;;;23.17;;
142;SDS011;63667;49.046;8.468;2024-03-08T01:33:05;53.97;;;22.40;;
142;SDS011;63667;49.046;8.468;2024-03-08T01:35:32;59.33;;;23.40;;
142;SDS011;63667;49.046;8.468;2024-03-08T01:38:00;57.63;;;23.37;;
142;SDS011;63667;49.046;8.468;2024-03-08T01:40:28;59.20;;;23.90;;
142;SDS011;63667;49.046;8.468;2024-03-08T01:42:55;57.50;;;22.67;;
142;SDS011;63667;49.046;8.468;2024-03-08T01:45:22;54.10;;;21.97;;
142;SDS011;63667;49.046;8.468;2024-03-08T01:47:50;60.97;;;23.23;;
142;SDS011;63667;49.046;8.468;2024-03-08T01:50:17;61.83;;;23.73;;
142;SDS011;63667;49.046;8.468;2024-03-08T01:52:45;54.10;;;22.60;;
142;SDS011;63667;49.046;8.468;2024-03-08T01:55:13;56.20;;;22.33;;
142;SDS011;63667;49.046;8.468;2024-03-08T01:57:40;58.00;;;22.57;;
142;SDS011;63667;49.046;8.468;2024-03-08T02:00:08;56.63;;;23.03;;
142;SDS011;63667;49.046;8.468;2024-03-08T02:02:37;56.07;;;22.20;;
142;SDS011;63667;49.046;8.468;2024-03-08T02:05:04;60.40;;;23.50;;
142;SDS011;63667;49.046;8.468;2024-03-08T02:07:32;58.67;;;23.90;;
142;SDS011;63667;49.046;8.468;2024-03-08T02:09:59;59.33;;;24.17;;
142;SDS011;63667;49.046;8.468;2024-03-08T02:12:26;61.97;;;24.33;;
142;SDS011;63667;49.046;8.468;2024-03-08T02:14:54;61.07;;;24.37;;
142;SDS011;63667;49.046;8.468;2024-03-08T02:17:22;52.60;;;22.13;;
142;SDS011;63667;49.046;8.468;2024-03-08T02:19:50;59.30;;;24.30;;
142;SDS011;63667;49.046;8.468;2024-03-08T02:22:18;57.23;;;22.33;;
142;SDS011;63667;49.046;8.468;2024-03-08T02:24:45;57.87;;;23.30;;
142;SDS011;63667;49.046;8.468;2024-03-08T02:27:15;60.47;;;24.00;;
142;SDS011;63667;49.046;8.468;2024-03-08T02:29:52;56.40;;;23.57;;
142;SDS011;63667;49.046;8.468;2024-03-08T02:32:22;60.83;;;23.10;;
142;SDS011;63667;49.046;8.468;2024-03-08T02:34:49;53.93;;;21.87;;
142;SDS011;63667;49.046;8.468;2024-03-08T02:37:17;64.17;;;25.00;;
142;SDS011;63667;49.046;8.468;2024-03-08T02:39:44;57.70;;;23.10;;
142;SDS011;63667;49.046;8.468;2024-03-08T02:42:11;55.37;;;23.07;;
142;SDS011;63667;49.046;8.468;2024-03-08T02:44:42;69.70;;;24.80;;
142;SDS011;63667;49.046;8.468;2024-03-08T02:47:09;59.70;;;23.70;;
142;SDS011;63667;49.046;8.468;2024-03-08T02:49:37;56.60;;;23.63;;
142;SDS011;63667;49.046;8.468;2024-03-08T02:52:04;54.90;;;22.43;;
142;SDS011;63667;49.046;8.468;2024-03-08T02:54:33;55.80;;;22.40;;
142;SDS011;63667;49.046;8.468;2024-03-08T02:57:02;53.93;;;23.10;;
142;SDS011;63667;49.046;8.468;2024-03-08T02:59:30;57.67;;;23.43;;
142;SDS011;63667;49.046;8.468;2024-03-08T03:01:57;53.03;;;21.57;;
142;SDS011;63667;49.046;8.468;2024-03-08T03:04:24;60.23;;;23.33;;
142;SDS011;63667;49.046;8.468;2024-03-08T03:06:52;53.67;;;22.43;;
142;SDS011;63667;49.046;8.468;2024-03-08T03:09:20;54.43;;;23.63;;
142;SDS011;63667;49.046;8.468;2024-03-08T03:11:53;51.07;;;22.63;;
142;SDS011;63667;49.046;8.468;2024-03-08T03:14:21;58.23;;;23.40;;
142;SDS011;63667;49.046;8.468;2024-03-08T03:16:48;62.47;;;24.40;;
142;SDS011;63667;49.046;8.468;2024-03-08T03:19:16;65.83;;;23.13;;
142;SDS011;63667;49.046;8.468;2024-03-08T03:21:43;69.27;;;25.03;;
142;SDS011;63667;49.046;8.468;2024-03-08T03:24:11;61.40;;;23.23;;
142;SDS011;63667;49.046;8.468;2024-03-08T03:26:42;63.40;;;24.30;;
142;SDS011;63667;49.046;8.468;2024-03-08T03:29:09;57.63;;;23.83;;
142;SDS011;63667;49.046;8.468;2024-03-08T03:31:37;66.17;;;24.03;;
142;SDS011;63667;49.046;8.468;2024-03-08T03:34:06;57.00;;;22.73;;
142;SDS011;63667;49.046;8.468;2024-03-08T03:36:34;69.00;;;24.40;;
142;SDS011;63667;49.046;8.468;2024-03-08T03:39:03;70.13;;;25.70;;
142;SDS011;63667;49.046;8.468;2024-03-08T03:41:41;57.63;;;23.07;;
142;SDS011;63667;49.046;8.468;2024-03-08T03:44:12;59.60;;;24.40;;
142;SDS011;63667;49.046;8.468;2024-03-08T03:46:42;63.47;;;24.37;;
142;SDS011;63667;49.046;8.468;2024-03-08T03:49:10;60.93;;;23.17;;
142;SDS011;63667;49.046;8.468;2024-03-08T03:51:39;64.00;;;24.23;;
142;SDS011;63667;49.046;8.468;2024-03-08T03:54:06;71.40;;;24.90;;
142;SDS011;63667;49.046;8.468;2024-03-08T03:56:34;63.23;;;23.90;;
142;SDS011;63667;49.046;8.468;2024-03-08T03:59:01;65.10;;;24.50;;
142;SDS011;63667;49.046;8.468;2024-03-08T04:01:30;64.50;;;23.20;;
142;SDS011;63667;49.046;8.468;2024-03-08T04:03:57;57.93;;;22.73;;
142;SDS011;63667;49.046;8.468;2024-03-08T04:06:24;64.47;;;22.73;;
142;SDS011;63667;49.046;8.468;2024-03-08T04:08:51;56.77;;;22.50;;
142;SDS011;63667;49.046;8.468;2024-03-08T04:11:19;64.63;;;24.97;;
142;SDS011;63667;49.046;8.468;2024-03-08T04:13:46;60.47;;;23.20;;
142;SDS011;63667;49.046;8.468;2024-03-08T04:16:14;55.97;;;21.97;;
142;SDS011;63667;49.046;8.468;2024-03-08T04:18:42;56.00;;;22.20;;
142;SDS011;63667;49.046;8.468;2024-03-08T04:21:09;62.47;;;23.00;;
142;SDS011;63667;49.046;8.468;2024-03-08T04:23:37;57.80;;;22.47;;
142;SDS011;63667;49.046;8.468;2024-03-08T04:26:05;53.70;;;20.90;;
142;SDS011;63667;49.046;8.468;2024-03-08T04:28:34;59.97;;;22.97;;
142;SDS011;63667;49.046;8.468;2024-03-08T04:31:01;63.47;;;23.33;;
142;SDS011;63667;49.046;8.468;2024-03-08T04:33:28;56.60;;;22.23;;
142;SDS011;63667;49.046;8.468;2024-03-08T04:35:55;61.53;;;22.33;;
142;SDS011;63667;49.046;8.468;2024-03-08T04:38:23;58.80;;;23.07;;
142;SDS011;63667;49.046;8.468;2024-03-08T04:40:51;52.47;;;20.37;;
142;SDS011;63667;49.046;8.468;2024-03-08T04:43:19;53.67;;;20.80;;
142;SDS011;63667;49.046;8.468;2024-03-08T04:45:47;53.40;;;21.53;;
142;SDS011;63667;49.046;8.468;2024-03-08T04:48:14;69.23;;;22.93;;
142;SDS011;63667;49.046;8.468;2024-03-08T04:50:42;56.07;;;23.17;;
142;SDS011;63667;49.046;8.468;2024-03-08T04:53:10;54.67;;;21.90;;
142;SDS011;63667;49.046;8.468;2024-03-08T04:55:37;56.17;;;22.80;;
142;SDS011;63667;49.046;8.468;2024-03-08T04:58:04;56.43;;;21.40;;
142;SDS011;63667;49.046;8.468;2024-03-08T05:00:32;53.60;;;21.30;;
142;SDS011;63667;49.046;8.468;2024-03-08T05:03:01;57.83;;;22.43;;
142;SDS011;63667;49.046;8.468;2024-03-08T05:05:28;48.37;;;19.77;;
142;SDS011;63667;49.046;8.468;2024-03-08T05:07:56;53.50;;;21.57;;
142;SDS011;63667;49.046;8.468;2024-03-08T05:10:23;50.80;;;21.17;;
142;SDS011;63667;49.046;8.468;2024-03-08T05:12:51;55.10;;;21.37;;
142;SDS011;63667;49.046;8.468;2024-03-08T05:15:18;61.93;;;23.07;;
142;SDS011;63667;49.046;8.468;2024-03-08T05:17:47;57.10;;;23.00;;
142;SDS011;63667;49.046;8.468;2024-03-08T05:20:14;52.87;;;20.43;;
142;SDS011;63667;49.046;8.468;2024-03-08T05:22:43;58.90;;;21.80;;
142;SDS011;63667;49.046;8.468;2024-03-08T05:25:10;54.93;;;22.37;;
142;SDS011;63667;49.046;8.468;2024-03-08T05:27:37;57.30;;;21.13;;
142;SDS011;63667;49.046;8.468;2024-03-08T05:30:05;61.43;;;22.17;;
142;SDS011;63667;49.046;8.468;2024-03-08T05:32:39;66.00;;;23.37;;
142;SDS011;63667;49.046;8.468;2024-03-08T05:35:10;56.43;;;22.80;;
142;SDS011;63667;49.046;8.468;2024-03-08T05:37:42;55.40;;;21.60;;
142;SDS011;63667;49.046;8.468;2024-03-08T05:40:09;57.90;;;22.37;;
142;SDS011;63667;49.046;8.468;2024-03-08T05:42:38;54.37;;;21.73;;
142;SDS011;63667;49.046;8.468;2024-03-08T05:45:05;53.10;;;21.47;;
142;SDS011;63667;49.046;8.468;2024-03-08T05:47:33;58.07;;;21.57;;
142;SDS011;63667;49.046;8.468;2024-03-08T05:50:01;61.67;;;22.00;;
142;SDS011;63667;49.046;8.468;2024-03-08T05:52:28;55.30;;;21.70;;
142;SDS011;63667;49.046;8.468;2024-03-08T05:54:56;58.10;;;22.10;;
142;SDS011;63667;49.046;8.468;2024-03-08T05:57:23;54.20;;;21.07;;
142;SDS011;63667;49.046;8.468;2024-03-08T06:02:19;52.40;;;22.20;;
142;SDS011;63667;49.046;8.468;2024-03-08T06:04:47;57.03;;;21.97;;
142;SDS011;63667;49.046;8.468;2024-03-08T06:07:15;50.63;;;20.43;;
142;SDS011;63667;49.046;8.468;2024-03-08T06:09:43;52.90;;;21.43;;
142;SDS011;63667;49.046;8.468;2024-03-08T06:12:14;62.63;;;23.00;;
142;SDS011;63667;49.046;8.468;2024-03-08T06:14:45;67.03;;;22.97;;
142;SDS011;63667;49.046;8.468;2024-03-08T06:17:18;53.83;;;21.63;;
142;SDS011;63667;49.046;8.468;2024-03-08T06:19:53;52.10;;;21.37;;
142;SDS011;63667;49.046;8.468;2024-03-08T06:22:21;61.90;;;21.70;;
142;SDS011;63667;49.046;8.468;2024-03-08T06:24:48;55.73;;;22.57;;
142;SDS011;63667;49.046;8.468;2024-03-08T06:27:17;53.83;;;21.60;;
142;SDS011;63667;49.046;8.468;2024-03-08T06:29:44;52.83;;;21.63;;
142;SDS011;63667;49.046;8.468;2024-03-08T06:32:14;54.60;;;21.60;;
142;SDS011;63667;49.046;8.468;2024-03-08T06:34:42;48.90;;;20.23;;
142;SDS011;63667;49.046;8.468;2024-03-08T06:37:09;50.83;;;21.60;;
142;SDS011;63667;49.046;8.468;2024-03-08T06:39:37;48.13;;;19.80;;
142;SDS011;63667;49.046;8.468;2024-03-08T06:42:05;53.27;;;21.27;;
142;SDS011;63667;49.046;8.468;2024-03-08T06:44:35;56.70;;;22.10;;
142;SDS011;63667;49.046;8.468;2024-03-08T06:47:10;57.20;;;22.40;;
142;SDS011;63667;49.046;8.468;2024-03-08T06:49:37;57.53;;;20.77;;
142;SDS011;63667;49.046;8.468;2024-03-08T06:52:05;47.80;;;20.40;;
142;SDS011;63667;49.046;8.468;2024-03-08T06:54:35;55.70;;;22.50;;
142;SDS011;63667;49.046;8.468;2024-03-08T06:57:03;54.83;;;21.60;;
142;SDS011;63667;49.046;8.468;2024-03-08T06:59:32;52.00;;;20.00;;
142;SDS011;63667;49.046;8.468;2024-03-08T07:01:59;50.67;;;20.53;;
142;SDS011;63667;49.046;8.468;2024-03-08T07:04:27;56.50;;;21.30;;
142;SDS011;63667;49.046;8.468;2024-03-08T07:06:55;58.93;;;22.73;;
142;SDS011;63667;49.046;8.468;2024-03-08T07:09:23;52.23;;;20.07;;
142;SDS011;63667;49.046;8.468;2024-03-08T07:11:51;62.23;;;21.53;;
142;SDS011;63667;49.046;8.468;2024-03-08T07:14:21;50.80;;;20.33;;
142;SDS011;63667;49.046;8.468;2024-03-08T07:16:49;51.03;;;20.20;;
142;SDS011;63667;49.046;8.468;2024-03-08T07:19:17;46.27;;;18.47;;
142;SDS011;63667;49.046;8.468;2024-03-08T07:21:45;51.53;;;21.00;;
142;SDS011;63667;49.046;8.468;2024-03-08T07:24:13;48.17;;;20.70;;
142;SDS011;63667;49.046;8.468;2024-03-08T07:26:43;46.40;;;19.97;;
142;SDS011;63667;49.046;8.468;2024-03-08T07:29:15;48.57;;;20.10;;
142;SDS011;63667;49.046;8.468;2024-03-08T07:31:43;48.63;;;19.73;;
142;SDS011;63667;49.046;8.468;2024-03-08T07:34:21;48.67;;;19.27;;
142;SDS011;63667;49.046;8.468;2024-03-08T07:36:49;45.13;;;20.03;;
142;SDS011;63667;49.046;8.468;2024-03-08T07:39:25;44.80;;;19.00;;
142;SDS011;63667;49.046;8.468;2024-03-08T07:41:52;42.53;;;17.63;;
142;SDS011;63667;49.046;8.468;2024-03-08T07:44:20;50.10;;;20.83;;
142;SDS011;63667;49.046;8.468;2024-03-08T07:46:47;46.03;;;20.23;;
142;SDS011;63667;49.046;8.468;2024-03-08T07:49:14;41.90;;;19.20;;
142;SDS011;63667;49.046;8.468;2024-03-08T07:51:42;41.43;;;18.87;;
142;SDS011;63667;49.046;8.468;2024-03-08T07:54:09;47.83;;;20.60;;
142;SDS011;63667;49.046;8.468;2024-03-08T07:56:36;45.60;;;19.50;;
142;SDS011;63667;49.046;8.468;2024-03-08T07:59:04;48.13;;;19.87;;
142;SDS011;63667;49.046;8.468;2024-03-08T08:01:31;49.67;;;19.77;;
142;SDS011;63667;49.046;8.468;2024-03-08T08:04:02;48.23;;;20.40;;
142;SDS011;63667;49.046;8.468;2024-03-08T08:06:30;42.97;;;18.80;;
142;SDS011;63667;49.046;8.468;2024-03-08T08:08:59;52.70;;;21.93;;
142;SDS011;63667;49.046;8.468;2024-03-08T08:11:30;47.80;;;20.63;;
142;SDS011;63667;49.046;8.468;2024-03-08T08:13:58;49.27;;;20.50;;
142;SDS011;63667;49.046;8.468;2024-03-08T08:16:26;60.60;;;20.23;;
142;SDS011;63667;49.046;8.468;2024-03-08T08:18:54;47.33;;;20.27;;
142;SDS011;63667;49.046;8.468;2024-03-08T08:21:22;48.40;;;21.17;;
142;SDS011;63667;49.046;8.468;2024-03-08T08:23:51;45.90;;;20.13;;
142;SDS011;63667;49.046;8.468;2024-03-08T08:26:18;44.70;;;19.90;;
142;SDS011;63667;49.046;8.468;2024-03-08T08:28:47;55.70;;;21.50;;
142;SDS011;63667;49.046;8.468;2024-03-08T08:31:15;51.50;;;20.97;;
142;SDS011;63667;49.046;8.468;2024-03-08T08:33:42;46.90;;;20.07;;
142;SDS011;63667;49.046;8.468;2024-03-08T08:36:10;51.70;;;20.60;;
142;SDS011;63667;49.046;8.468;2024-03-08T08:38:39;50.10;;;20.80;;
142;SDS011;63667;49.046;8.468;2024-03-08T08:41:11;47.43;;;20.70;;
142;SDS011;63667;49.046;8.468;2024-03-08T08:43:39;50.23;;;19.33;;
142;SDS011;63667;49.046;8.468;2024-03-08T08:46:12;50.33;;;22.43;;
142;SDS011;63667;49.046;8.468;2024-03-08T08:48:39;46.33;;;21.27;;
142;SDS011;63667;49.046;8.468;2024-03-08T08:51:13;50.80;;;21.00;;
142;SDS011;63667;49.046;8.468;2024-03-08T08:53:42;47.17;;;20.00;;
142;SDS011;63667;49.046;8.468;2024-03-08T08:56:11;50.03;;;20.37;;
142;SDS011;63667;49.046;8.468;2024-03-08T08:58:42;47.53;;;19.73;;
142;SDS011;63667;49.046;8.468;2024-03-08T09:01:09;45.73;;;21.10;;
142;SDS011;63667;49.046;8.468;2024-03-08T09:03:36;46.70;;;19.37;;
142;SDS011;63667;49.046;8.468;2024-03-08T09:06:06;47.27;;;20.37;;
142;SDS011;63667;49.046;8.468;2024-03-08T09:08:36;49.57;;;21.00;;
142;SDS011;63667;49.046;8.468;2024-03-08T09:11:04;54.47;;;22.50;;
142;SDS011;63667;49.046;8.468;2024-03-08T09:13:31;47.97;;;21.10;;
142;SDS011;63667;49.046;8.468;2024-03-08T09:15:59;47.90;;;18.73;;
142;SDS011;63667;49.046;8.468;2024-03-08T09:18:27;45.57;;;19.67;;
142;SDS011;63667;49.046;8.468;2024-03-08T09:20:55;45.30;;;20.53;;
142;SDS011;63667;49.046;8.468;2024-03-08T09:23:23;49.60;;;20.67;;
142;SDS011;63667;49.046;8.468;2024-03-08T09:25:52;48.13;;;20.47;;
142;SDS011;63667;49.046;8.468;2024-03-08T09:28:19;48.37;;;20.27;;
142;SDS011;63667;49.046;8.468;2024-03-08T09:30:46;45.67;;;20.47;;
142;SDS011;63667;49.046;8.468;2024-03-08T09:33:14;44.30;;;20.40;;
142;SDS011;63667;49.046;8.468;2024-03-08T09:35:45;47.87;;;20.13;;
142;SDS011;63667;49.046;8.468;2024-03-08T09:38:14;50.03;;;19.20;;
142;SDS011;63667;49.046;8.468;2024-03-08T09:40:41;41.70;;;20.50;;
142;SDS011;63667;49.046;8.468;2024-03-08T09:43:09;42.97;;;18.93;;
142;SDS011;63667;49.046;8.468;2024-03-08T09:45:40;45.23;;;20.30;;
142;SDS011;63667;49.046;8.468;2024-03-08T09:48:10;38.27;;;18.37;;
142;SDS011;63667;49.046;8.468;2024-03-08T09:50:42;41.00;;;19.43;;
142;SDS011;63667;49.046;8.468;2024-03-08T09:53:12;44.13;;;19.83;;
142;SDS011;63667;49.046;8.468;2024-03-08T09:55:40;40.80;;;19.50;;
142;SDS011;63667;49.046;8.468;2024-03-08T09:58:13;43.43;;;18.60;;
142;SDS011;63667;49.046;8.468;2024-03-08T10:00:55;43.40;;;18.93;;
142;SDS011;63667;49.046;8.468;2024-03-08T10:03:23;41.50;;;18.67;;
142;SDS011;63667;49.046;8.468;2024-03-08T10:05:52;42.60;;;18.90;;
142;SDS011;63667;49.046;8.468;2024-03-08T10:08:22;48.70;;;18.17;;
142;SDS011;63667;49.046;8.468;2024-03-08T10:10:50;44.87;;;20.10;;
142;SDS011;63667;49.046;8.468;2024-03-08T10:13:18;42.47;;;19.20;;
142;SDS011;63667;49.046;8.468;2024-03-08T10:15:45;44.73;;;18.10;;
142;SDS011;63667;49.046;8.468;2024-03-08T10:18:13;42.10;;;19.40;;
142;SDS011;63667;49.046;8.468;2024-03-08T10:20:41;43.37;;;18.47;;
142;SDS011;63667;49.046;8.468;2024-03-08T10:23:09;45.97;;;19.27;;
142;SDS011;63667;49.046;8.468;2024-03-08T10:25:37;38.67;;;18.90;;
142;SDS011;63667;49.046;8.468;2024-03-08T10:28:05;41.00;;;18.40;;
142;SDS011;63667;49.046;8.468;2024-03-08T10:30:46;40.70;;;20.20;;
142;SDS011;63667;49.046;8.468;2024-03-08T10:33:13;39.80;;;19.03;;
142;SDS011;63667;49.046;8.468;2024-03-08T10:35:41;40.40;;;18.20;;
142;SDS011;63667;49.046;8.468;2024-03-08T10:38:09;44.37;;;18.80;;
142;SDS011;63667;49.046;8.468;2024-03-08T10:40:40;42.13;;;18.97;;
142;SDS011;63667;49.046;8.468;2024-03-08T10:43:10;46.00;;;18.27;;
142;SDS011;63667;49.046;8.468;2024-03-08T10:45:41;38.70;;;18.87;;
142;SDS011;63667;49.046;8.468;2024-03-08T10:50:48;39.43;;;18.57;;
142;SDS011;63667;49.046;8.468;2024-03-08T10:53:18;40.60;;;18.93;;
142;SDS011;63667;49.046;8.468;2024-03-08T10:55:49;37.23;;;18.37;;
142;SDS011;63667;49.046;8.468;2024-03-08T10:58:19;38.77;;;19.00;;
142;SDS011;63667;49.046;8.468;2024-03-08T11:00:48;40.70;;;19.17;;
142;SDS011;63667;49.046;8.468;2024-03-08T11:06:04;38.33;;;18.27;;
142;SDS011;63667;49.046;8.468;2024-03-08T11:08:33;41.13;;;18.87;;
142;SDS011;63667;49.046;8.468;2024-03-08T11:11:02;41.63;;;18.37;;
142;SDS011;63667;49.046;8.468;2024-03-08T11:13:40;41.17;;;19.93;;
142;SDS011;63667;49.046;8.468;2024-03-08T11:16:09;38.10;;;18.03;;
142;SDS011;63667;49.046;8.468;2024-03-08T11:18:37;38.90;;;18.33;;
142;SDS011;63667;49.046;8.468;2024-03-08T11:21:04;41.57;;;18.03;;
142;SDS011;63667;49.046;8.468;2024-03-08T11:23:32;38.70;;;17.97;;
142;SDS011;63667;49.046;8.468;2024-03-08T11:26:01;37.97;;;17.97;;
142;SDS011;63667;49.046;8.468;2024-03-08T11:28:30;39.77;;;19.77;;
142;SDS011;63667;49.046;8.468;2024-03-08T11:33:29;34.03;;;17.37;;
142;SDS011;63667;49.046;8.468;2024-03-08T11:38:31;37.20;;;18.47;;
142;SDS011;63667;49.046;8.468;2024-03-08T11:40:59;43.47;;;18.13;;
142;SDS011;63667;49.046;8.468;2024-03-08T11:43:26;36.87;;;17.83;;
142;SDS011;63667;49.046;8.468;2024-03-08T11:46:07;33.50;;;16.97;;
142;SDS011;63667;49.046;8.468;2024-03-08T11:48:34;36.10;;;18.33;;
142;SDS011;63667;49.046;8.468;2024-03-08T11:51:04;34.63;;;18.10;;
142;SDS011;63667;49.046;8.468;2024-03-08T11:53:32;36.67;;;17.63;;
142;SDS011;63667;49.046;8.468;2024-03-08T11:56:06;37.90;;;18.20;;
142;SDS011;63667;49.046;8.468;2024-03-08T11:58:33;34.60;;;17.67;;
142;SDS011;63667;49.046;8.468;2024-03-08T12:01:06;40.47;;;18.43;;
142;SDS011;63667;49.046;8.468;2024-03-08T12:03:42;36.23;;;17.83;;
142;SDS011;63667;49.046;8.468;2024-03-08T12:06:09;39.13;;;18.87;;
142;SDS011;63667;49.046;8.468;2024-03-08T12:08:37;36.83;;;19.10;;
142;SDS011;63667;49.046;8.468;2024-03-08T12:11:05;36.80;;;18.17;;
142;SDS011;63667;49.046;8.468;2024-03-08T12:13:33;39.70;;;18.53;;
142;SDS011;63667;49.046;8.468;2024-03-08T12:16:04;46.73;;;19.30;;
142;SDS011;63667;49.046;8.468;2024-03-08T12:18:35;31.47;;;17.33;;
142;SDS011;63667;49.046;8.468;2024-03-08T12:21:06;36.80;;;16.80;;
142;SDS011;63667;49.046;8.468;2024-03-08T12:23:34;35.13;;;17.47;;
142;SDS011;63667;49.046;8.468;2024-03-08T12:26:11;36.53;;;19.00;;
142;SDS011;63667;49.046;8.468;2024-03-08T12:28:40;35.67;;;17.83;;
142;SDS011;63667;49.046;8.468;2024-03-08T12:31:07;35.80;;;18.70;;
142;SDS011;63667;49.046;8.468;2024-03-08T12:34:00;37.03;;;17.30;;
142;SDS011;63667;49.046;8.468;2024-03-08T12:36:24;36.90;;;18.50;;
142;SDS011;63667;49.046;8.468;2024-03-08T12:38:54;33.47;;;17.40;;
142;SDS011;63667;49.046;8.468;2024-03-08T12:41:22;30.63;;;16.53;;
142;SDS011;63667;49.046;8.468;2024-03-08T12:43:49;32.40;;;17.70;;
142;SDS011;63667;49.046;8.468;2024-03-08T12:48:43;38.33;;;17.87;;
142;SDS011;63667;49.046;8.468;2024-03-08T12:51:16;36.50;;;18.23;;
142;SDS011;63667;49.046;8.468;2024-03-08T12:53:44;31.00;;;17.30;;
142;SDS011;63667;49.046;8.468;2024-03-08T12:56:20;33.70;;;18.57;;
142;SDS011;63667;49.046;8.468;2024-03-08T12:58:55;33.93;;;18.10;;
142;SDS011;63667;49.046;8.468;2024-03-08T13:01:22;34.07;;;17.97;;
142;SDS011;63667;49.046;8.468;2024-03-08T13:03:50;32.77;;;17.17;;
142;SDS011;63667;49.046;8.468;2024-03-08T13:06:17;31.47;;;17.40;;
142;SDS011;63667;49.046;8.468;2024-03-08T13:08:47;30.70;;;17.63;;
142;SDS011;63667;49.046;8.468;2024-03-08T13:11:15;32.73;;;18.17;;
142;SDS011;63667;49.046;8.468;2024-03-08T13:13:43;34.30;;;19.00;;
142;SDS011;63667;49.046;8.468;2024-03-08T13:16:11;32.70;;;17.50;;
142;SDS011;63667;49.046;8.468;2024-03-08T13:18:40;32.40;;;17.93;;
142;SDS011;63667;49.046;8.468;2024-03-08T13:21:10;35.47;;;18.03;;
142;SDS011;63667;49.046;8.468;2024-03-08T13:23:40;34.23;;;17.57;;
142;SDS011;63667;49.046;8.468;2024-03-08T13:26:12;33.57;;;18.23;;
142;SDS011;63667;49.046;8.468;2024-03-08T13:28:59;28.07;;;16.77;;
142;SDS011;63667;49.046;8.468;2024-03-08T13:31:26;29.80;;;17.00;;
142;SDS011;63667;49.046;8.468;2024-03-08T13:33:54;34.60;;;18.07;;
142;SDS011;63667;49.046;8.468;2024-03-08T13:36:24;33.13;;;17.87;;
142;SDS011;63667;49.046;8.468;2024-03-08T13:38:55;32.83;;;18.23;;
142;SDS011;63667;49.046;8.468;2024-03-08T13:41:25;30.27;;;17.67;;
142;SDS011;63667;49.046;8.468;2024-03-08T13:43:52;35.43;;;17.83;;
142;SDS011;63667;49.046;8.468;2024-03-08T13:46:21;31.77;;;18.50;;
142;SDS011;63667;49.046;8.468;2024-03-08T13:48:50;30.77;;;17.57;;
142;SDS011;63667;49.046;8.468;2024-03-08T13:51:17;34.00;;;18.70;;
142;SDS011;63667;49.046;8.468;2024-03-08T13:53:45;34.27;;;17.63;;
142;SDS011;63667;49.046;8.468;2024-03-08T13:56:13;31.77;;;17.63;;
142;SDS011;63667;49.046;8.468;2024-03-08T13:58:40;32.13;;;18.00;;
142;SDS011;63667;49.046;8.468;2024-03-08T14:01:10;35.83;;;17.80;;
142;SDS011;63667;49.046;8.468;2024-03-08T14:03:38;35.40;;;18.63;;
142;SDS011;63667;49.046;8.468;2024-03-08T14:06:08;36.07;;;18.77;;
142;SDS011;63667;49.046;8.468;2024-03-08T14:08:36;37.23;;;18.17;;
142;SDS011;63667;49.046;8.468;2024-03-08T14:11:04;32.83;;;17.13;;
142;SDS011;63667;49.046;8.468;2024-03-08T14:13:42;34.60;;;18.27;;
142;SDS011;63667;49.046;8.468;2024-03-08T14:16:11;34.83;;;18.23;;
142;SDS011;63667;49.046;8.468;2024-03-08T14:18:39;33.50;;;17.20;;
142;SDS011;63667;49.046;8.468;2024-03-08T14:21:06;35.37;;;19.40;;
142;SDS011;63667;49.046;8.468;2024-03-08T14:23:34;36.63;;;18.67;;
142;SDS011;63667;49.046;8.468;2024-03-08T14:26:03;36.40;;;18.47;;
142;SDS011;63667;49.046;8.468;2024-03-08T14:28:33;35.20;;;18.10;;
142;SDS011;63667;49.046;8.468;2024-03-08T14:31:00;35.60;;;18.73;;
142;SDS011;63667;49.046;8.468;2024-03-08T14:33:28;32.57;;;18.00;;
142;SDS011;63667;49.046;8.468;2024-03-08T14:35:57;34.37;;;18.40;;
142;SDS011;63667;49.046;8.468;2024-03-08T14:38:24;34.37;;;18.30;;
142;SDS011;63667;49.046;8.468;2024-03-08T14:40:53;38.97;;;18.67;;
142;SDS011;63667;49.046;8.468;2024-03-08T14:43:21;32.93;;;18.20;;
142;SDS011;63667;49.046;8.468;2024-03-08T14:45:50;38.50;;;20.07;;
142;SDS011;63667;49.046;8.468;2024-03-08T14:48:17;36.43;;;18.70;;
142;SDS011;63667;49.046;8.468;2024-03-08T14:50:49;34.57;;;18.30;;
142;SDS011;63667;49.046;8.468;2024-03-08T14:53:16;35.40;;;17.90;;
142;SDS011;63667;49.046;8.468;2024-03-08T14:55:44;36.53;;;18.80;;
142;SDS011;63667;49.046;8.468;2024-03-08T14:58:13;36.33;;;18.47;;
142;SDS011;63667;49.046;8.468;2024-03-08T15:00:40;40.27;;;19.00;;
142;SDS011;63667;49.046;8.468;2024-03-08T15:03:09;41.00;;;19.60;;
142;SDS011;63667;49.046;8.468;2024-03-08T15:05:39;40.00;;;19.30;;
142;SDS011;63667;49.046;8.468;2024-03-08T15:08:13;36.97;;;18.90;;
142;SDS011;63667;49.046;8.468;2024-03-08T15:10:48;38.17;;;18.00;;
142;SDS011;63667;49.046;8.468;2024-03-08T15:13:21;36.33;;;17.97;;